sensor_id;sensor_type;location;lat;lon;timestamp;P1;durP1;ratioP1;P2;durP2;ratioP2
14883;SDS011;7534;50.762;7.000;2024-02-21T00:00:20;11.37;;;6.63;;
14883;SDS011;7534;50.762;7.000;2024-02-21T00:02:46;9.13;;;6.10;;
14883;SDS011;7534;50.762;7.000;2024-02-21T00:05:12;9.10;;;5.43;;
14883;SDS011;7534;50.762;7.000;2024-02-21T00:07:38;8.93;;;5.90;;
14883;SDS011;7534;50.762;7.000;2024-02-21T00:10:03;9.00;;;5.87;;
14883;SDS011;7534;50.762;7.000;2024-02-21T00:12:30;9.73;;;6.00;;
14883;SDS011;7534;50.762;7.000;2024-02-21T00:14:55;8.70;;;5.30;;
14883;SDS011;7534;50.762;7.000;2024-02-21T00:17:21;7.07;;;5.17;;
14883;SDS011;7534;50.762;7.000;2024-02-21T00:19:47;9.63;;;6.27;;
14883;SDS011;7534;50.762;7.000;2024-02-21T00:22:13;12.63;;;6.50;;
14883;SDS011;7534;50.762;7.000;2024-02-21T00:24:38;9.37;;;5.90;;
14883;SDS011;7534;50.762;7.000;2024-02-21T00:27:04;9.17;;;6.07;;
14883;SDS011;7534;50.762;7.000;2024-02-21T00:29:31;10.10;;;5.73;;
14883;SDS011;7534;50.762;7.000;2024-02-21T00:31:57;11.90;;;5.90;;
14883;SDS011;7534;50.762;7.000;2024-02-21T00:34:22;9.33;;;5.53;;
14883;SDS011;7534;50.762;7.000;2024-02-21T00:36:49;9.20;;;5.83;;
14883;SDS011;7534;50.762;7.000;2024-02-21T00:39:15;10.33;;;5.77;;
14883;SDS011;7534;50.762;7.000;2024-02-21T00:41:41;11.97;;;5.90;;
14883;SDS011;7534;50.762;7.000;2024-02-21T00:44:06;8.47;;;5.47;;
14883;SDS011;7534;50.762;7.000;2024-02-21T00:46:32;7.63;;;5.23;;
14883;SDS011;7534;50.762;7.000;2024-02-21T00:48:58;11.07;;;5.87;;
14883;SDS011;7534;50.762;7.000;2024-02-21T00:51:23;10.40;;;5.33;;
14883;SDS011;7534;50.762;7.000;2024-02-21T00:53:49;9.07;;;5.23;;
14883;SDS011;7534;50.762;7.000;2024-02-21T00:56:16;10.53;;;5.57;;
14883;SDS011;7534;50.762;7.000;2024-02-21T00:58:42;10.17;;;5.30;;
14883;SDS011;7534;50.762;7.000;2024-02-21T01:01:07;8.60;;;5.40;;
14883;SDS011;7534;50.762;7.000;2024-02-21T01:03:33;9.80;;;6.07;;
14883;SDS011;7534;50.762;7.000;2024-02-21T01:05:59;9.53;;;4.87;;
14883;SDS011;7534;50.762;7.000;2024-02-21T01:08:24;8.83;;;4.53;;
14883;SDS011;7534;50.762;7.000;2024-02-21T01:10:50;8.17;;;4.87;;
14883;SDS011;7534;50.762;7.000;2024-02-21T01:13:16;6.63;;;4.23;;
14883;SDS011;7534;50.762;7.000;2024-02-21T01:15:41;6.40;;;4.77;;
14883;SDS011;7534;50.762;7.000;2024-02-21T01:18:07;9.30;;;5.10;;
14883;SDS011;7534;50.762;7.000;2024-02-21T01:20:33;9.10;;;4.67;;
14883;SDS011;7534;50.762;7.000;2024-02-21T01:22:58;8.80;;;4.73;;
14883;SDS011;7534;50.762;7.000;2024-02-21T01:25:24;8.43;;;4.57;;
14883;SDS011;7534;50.762;7.000;2024-02-21T01:27:50;8.43;;;4.57;;
14883;SDS011;7534;50.762;7.000;2024-02-21T01:30:16;8.47;;;4.80;;
14883;SDS011;7534;50.762;7.000;2024-02-21T01:32:42;11.20;;;5.63;;
14883;SDS011;7534;50.762;7.000;2024-02-21T01:35:08;8.77;;;5.07;;
14883;SDS011;7534;50.762;7.000;2024-02-21T01:37:33;7.20;;;4.50;;
14883;SDS011;7534;50.762;7.000;2024-02-21T01:39:59;10.90;;;4.83;;
14883;SDS011;7534;50.762;7.000;2024-02-21T01:42:25;11.63;;;4.70;;
14883;SDS011;7534;50.762;7.000;2024-02-21T01:44:50;10.93;;;5.10;;
14883;SDS011;7534;50.762;7.000;2024-02-21T01:47:16;8.20;;;4.50;;
14883;SDS011;7534;50.762;7.000;2024-02-21T01:49:42;7.03;;;4.27;;
14883;SDS011;7534;50.762;7.000;2024-02-21T01:52:08;8.40;;;4.83;;
14883;SDS011;7534;50.762;7.000;2024-02-21T01:54:36;7.53;;;4.10;;
14883;SDS011;7534;50.762;7.000;2024-02-21T01:57:02;10.73;;;4.73;;
14883;SDS011;7534;50.762;7.000;2024-02-21T01:59:28;7.60;;;4.27;;
14883;SDS011;7534;50.762;7.000;2024-02-21T02:01:55;7.60;;;4.47;;
14883;SDS011;7534;50.762;7.000;2024-02-21T02:04:21;9.90;;;5.30;;
14883;SDS011;7534;50.762;7.000;2024-02-21T02:06:48;6.97;;;4.87;;
14883;SDS011;7534;50.762;7.000;2024-02-21T02:09:15;8.10;;;4.90;;
14883;SDS011;7534;50.762;7.000;2024-02-21T02:11:42;8.37;;;4.63;;
14883;SDS011;7534;50.762;7.000;2024-02-21T02:14:08;8.90;;;5.00;;
14883;SDS011;7534;50.762;7.000;2024-02-21T02:16:34;7.47;;;4.07;;
14883;SDS011;7534;50.762;7.000;2024-02-21T02:18:59;9.17;;;4.47;;
14883;SDS011;7534;50.762;7.000;2024-02-21T02:21:27;8.93;;;4.17;;
14883;SDS011;7534;50.762;7.000;2024-02-21T02:23:55;9.90;;;4.47;;
14883;SDS011;7534;50.762;7.000;2024-02-21T02:26:21;8.00;;;4.80;;
14883;SDS011;7534;50.762;7.000;2024-02-21T02:28:47;8.27;;;4.80;;
14883;SDS011;7534;50.762;7.000;2024-02-21T02:31:13;6.87;;;3.73;;
14883;SDS011;7534;50.762;7.000;2024-02-21T02:33:38;8.83;;;4.57;;
14883;SDS011;7534;50.762;7.000;2024-02-21T02:36:04;8.50;;;4.83;;
14883;SDS011;7534;50.762;7.000;2024-02-21T02:38:31;11.00;;;5.50;;
14883;SDS011;7534;50.762;7.000;2024-02-21T02:40:56;10.53;;;4.30;;
14883;SDS011;7534;50.762;7.000;2024-02-21T02:43:22;7.87;;;4.40;;
14883;SDS011;7534;50.762;7.000;2024-02-21T02:45:48;9.90;;;4.60;;
14883;SDS011;7534;50.762;7.000;2024-02-21T02:48:13;8.17;;;4.67;;
14883;SDS011;7534;50.762;7.000;2024-02-21T02:50:39;11.33;;;4.97;;
14883;SDS011;7534;50.762;7.000;2024-02-21T02:53:05;8.40;;;4.37;;
14883;SDS011;7534;50.762;7.000;2024-02-21T02:55:30;12.90;;;5.33;;
14883;SDS011;7534;50.762;7.000;2024-02-21T02:57:56;10.37;;;4.70;;
14883;SDS011;7534;50.762;7.000;2024-02-21T03:00:22;9.03;;;4.87;;
14883;SDS011;7534;50.762;7.000;2024-02-21T03:02:48;9.37;;;4.63;;
14883;SDS011;7534;50.762;7.000;2024-02-21T03:05:15;8.57;;;4.33;;
14883;SDS011;7534;50.762;7.000;2024-02-21T03:07:44;7.90;;;4.30;;
14883;SDS011;7534;50.762;7.000;2024-02-21T03:10:10;9.90;;;4.67;;
14883;SDS011;7534;50.762;7.000;2024-02-21T03:12:37;7.93;;;4.70;;
14883;SDS011;7534;50.762;7.000;2024-02-21T03:15:03;9.00;;;4.47;;
14883;SDS011;7534;50.762;7.000;2024-02-21T03:17:30;8.40;;;4.60;;
14883;SDS011;7534;50.762;7.000;2024-02-21T03:19:57;7.50;;;4.60;;
14883;SDS011;7534;50.762;7.000;2024-02-21T03:22:23;7.90;;;4.57;;
14883;SDS011;7534;50.762;7.000;2024-02-21T03:24:49;9.17;;;4.27;;
14883;SDS011;7534;50.762;7.000;2024-02-21T03:27:15;12.47;;;4.97;;
14883;SDS011;7534;50.762;7.000;2024-02-21T03:29:40;9.40;;;4.50;;
14883;SDS011;7534;50.762;7.000;2024-02-21T03:32:06;7.83;;;4.40;;
14883;SDS011;7534;50.762;7.000;2024-02-21T03:34:32;11.33;;;4.57;;
14883;SDS011;7534;50.762;7.000;2024-02-21T03:36:58;9.67;;;4.20;;
14883;SDS011;7534;50.762;7.000;2024-02-21T03:39:24;9.87;;;5.07;;
14883;SDS011;7534;50.762;7.000;2024-02-21T03:41:49;9.53;;;4.67;;
14883;SDS011;7534;50.762;7.000;2024-02-21T03:44:16;10.53;;;4.20;;
14883;SDS011;7534;50.762;7.000;2024-02-21T03:46:42;9.67;;;4.60;;
14883;SDS011;7534;50.762;7.000;2024-02-21T03:49:07;7.17;;;4.17;;
14883;SDS011;7534;50.762;7.000;2024-02-21T03:51:33;9.77;;;4.87;;
14883;SDS011;7534;50.762;7.000;2024-02-21T03:53:59;8.07;;;4.20;;
14883;SDS011;7534;50.762;7.000;2024-02-21T03:56:24;11.23;;;4.30;;
14883;SDS011;7534;50.762;7.000;2024-02-21T03:58:50;8.00;;;4.27;;
14883;SDS011;7534;50.762;7.000;2024-02-21T04:01:15;9.83;;;4.30;;
14883;SDS011;7534;50.762;7.000;2024-02-21T04:03:42;9.30;;;4.17;;
14883;SDS011;7534;50.762;7.000;2024-02-21T04:06:10;8.13;;;4.50;;
14883;SDS011;7534;50.762;7.000;2024-02-21T04:08:37;6.50;;;4.00;;
14883;SDS011;7534;50.762;7.000;2024-02-21T04:11:02;11.60;;;4.40;;
14883;SDS011;7534;50.762;7.000;2024-02-21T04:13:28;8.60;;;4.23;;
14883;SDS011;7534;50.762;7.000;2024-02-21T04:15:54;8.77;;;4.30;;
14883;SDS011;7534;50.762;7.000;2024-02-21T04:18:19;10.07;;;5.37;;
14883;SDS011;7534;50.762;7.000;2024-02-21T04:20:45;8.90;;;4.03;;
14883;SDS011;7534;50.762;7.000;2024-02-21T04:23:12;8.53;;;4.43;;
14883;SDS011;7534;50.762;7.000;2024-02-21T04:25:39;7.23;;;3.80;;
14883;SDS011;7534;50.762;7.000;2024-02-21T04:28:04;7.50;;;4.30;;
14883;SDS011;7534;50.762;7.000;2024-02-21T04:30:30;8.40;;;4.63;;
14883;SDS011;7534;50.762;7.000;2024-02-21T04:32:56;6.23;;;3.80;;
14883;SDS011;7534;50.762;7.000;2024-02-21T04:35:21;8.30;;;4.13;;
14883;SDS011;7534;50.762;7.000;2024-02-21T04:37:47;6.10;;;4.03;;
14883;SDS011;7534;50.762;7.000;2024-02-21T04:40:14;10.00;;;4.40;;
14883;SDS011;7534;50.762;7.000;2024-02-21T04:42:41;9.30;;;4.10;;
14883;SDS011;7534;50.762;7.000;2024-02-21T04:45:07;8.67;;;3.90;;
14883;SDS011;7534;50.762;7.000;2024-02-21T04:47:34;9.93;;;4.50;;
14883;SDS011;7534;50.762;7.000;2024-02-21T04:49:59;7.47;;;4.17;;
14883;SDS011;7534;50.762;7.000;2024-02-21T04:52:25;5.70;;;3.70;;
14883;SDS011;7534;50.762;7.000;2024-02-21T04:54:51;7.80;;;4.47;;
14883;SDS011;7534;50.762;7.000;2024-02-21T04:57:17;5.13;;;3.83;;
14883;SDS011;7534;50.762;7.000;2024-02-21T04:59:43;7.67;;;3.97;;
14883;SDS011;7534;50.762;7.000;2024-02-21T05:02:10;8.40;;;4.33;;
14883;SDS011;7534;50.762;7.000;2024-02-21T05:04:37;9.27;;;3.90;;
14883;SDS011;7534;50.762;7.000;2024-02-21T05:07:03;8.10;;;4.53;;
14883;SDS011;7534;50.762;7.000;2024-02-21T05:09:30;8.07;;;4.13;;
14883;SDS011;7534;50.762;7.000;2024-02-21T05:11:55;5.97;;;3.93;;
14883;SDS011;7534;50.762;7.000;2024-02-21T05:14:23;8.07;;;3.83;;
14883;SDS011;7534;50.762;7.000;2024-02-21T05:16:49;7.30;;;4.17;;
14883;SDS011;7534;50.762;7.000;2024-02-21T05:19:14;6.17;;;3.90;;
14883;SDS011;7534;50.762;7.000;2024-02-21T05:21:40;10.03;;;3.93;;
14883;SDS011;7534;50.762;7.000;2024-02-21T05:24:06;6.57;;;3.97;;
14883;SDS011;7534;50.762;7.000;2024-02-21T05:26:31;4.97;;;3.47;;
14883;SDS011;7534;50.762;7.000;2024-02-21T05:28:57;7.57;;;3.70;;
14883;SDS011;7534;50.762;7.000;2024-02-21T05:31:24;8.37;;;3.90;;
14883;SDS011;7534;50.762;7.000;2024-02-21T05:33:50;7.47;;;3.70;;
14883;SDS011;7534;50.762;7.000;2024-02-21T05:36:16;6.17;;;3.50;;
14883;SDS011;7534;50.762;7.000;2024-02-21T05:38:42;7.40;;;3.93;;
14883;SDS011;7534;50.762;7.000;2024-02-21T05:41:07;6.73;;;3.70;;
14883;SDS011;7534;50.762;7.000;2024-02-21T05:43:33;6.80;;;3.70;;
14883;SDS011;7534;50.762;7.000;2024-02-21T05:45:59;8.00;;;3.97;;
14883;SDS011;7534;50.762;7.000;2024-02-21T05:48:24;5.77;;;3.87;;
14883;SDS011;7534;50.762;7.000;2024-02-21T05:50:50;5.23;;;3.63;;
14883;SDS011;7534;50.762;7.000;2024-02-21T05:53:16;5.83;;;3.50;;
14883;SDS011;7534;50.762;7.000;2024-02-21T05:55:42;6.27;;;3.30;;
14883;SDS011;7534;50.762;7.000;2024-02-21T05:58:08;8.23;;;3.40;;
14883;SDS011;7534;50.762;7.000;2024-02-21T06:00:38;5.43;;;3.20;;
14883;SDS011;7534;50.762;7.000;2024-02-21T06:03:04;6.23;;;3.40;;
14883;SDS011;7534;50.762;7.000;2024-02-21T06:05:30;7.13;;;3.63;;
14883;SDS011;7534;50.762;7.000;2024-02-21T06:07:56;5.93;;;3.57;;
14883;SDS011;7534;50.762;7.000;2024-02-21T06:10:22;6.13;;;3.50;;
14883;SDS011;7534;50.762;7.000;2024-02-21T06:12:48;8.57;;;3.37;;
14883;SDS011;7534;50.762;7.000;2024-02-21T06:15:13;6.83;;;3.50;;
14883;SDS011;7534;50.762;7.000;2024-02-21T06:17:39;7.03;;;3.77;;
14883;SDS011;7534;50.762;7.000;2024-02-21T06:20:05;7.80;;;3.90;;
14883;SDS011;7534;50.762;7.000;2024-02-21T06:22:31;8.77;;;3.90;;
14883;SDS011;7534;50.762;7.000;2024-02-21T06:24:57;7.77;;;3.93;;
14883;SDS011;7534;50.762;7.000;2024-02-21T06:27:24;7.23;;;3.93;;
14883;SDS011;7534;50.762;7.000;2024-02-21T06:29:49;8.43;;;4.10;;
14883;SDS011;7534;50.762;7.000;2024-02-21T06:32:15;8.27;;;4.37;;
14883;SDS011;7534;50.762;7.000;2024-02-21T06:34:41;7.23;;;3.87;;
14883;SDS011;7534;50.762;7.000;2024-02-21T06:37:06;7.90;;;4.00;;
14883;SDS011;7534;50.762;7.000;2024-02-21T06:39:32;7.50;;;4.10;;
14883;SDS011;7534;50.762;7.000;2024-02-21T06:41:58;7.23;;;3.77;;
14883;SDS011;7534;50.762;7.000;2024-02-21T06:44:23;6.97;;;3.60;;
14883;SDS011;7534;50.762;7.000;2024-02-21T06:46:49;8.30;;;3.37;;
14883;SDS011;7534;50.762;7.000;2024-02-21T06:49:15;10.03;;;3.83;;
14883;SDS011;7534;50.762;7.000;2024-02-21T06:51:43;7.57;;;3.60;;
14883;SDS011;7534;50.762;7.000;2024-02-21T06:54:09;9.97;;;4.27;;
14883;SDS011;7534;50.762;7.000;2024-02-21T06:56:35;6.97;;;3.70;;
14883;SDS011;7534;50.762;7.000;2024-02-21T06:59:02;5.20;;;3.37;;
14883;SDS011;7534;50.762;7.000;2024-02-21T07:01:28;6.90;;;3.57;;
14883;SDS011;7534;50.762;7.000;2024-02-21T07:03:54;8.87;;;4.77;;
14883;SDS011;7534;50.762;7.000;2024-02-21T07:06:21;5.03;;;3.60;;
14883;SDS011;7534;50.762;7.000;2024-02-21T07:08:47;7.87;;;3.90;;
14883;SDS011;7534;50.762;7.000;2024-02-21T07:11:13;7.10;;;3.90;;
14883;SDS011;7534;50.762;7.000;2024-02-21T07:13:38;6.67;;;3.77;;
14883;SDS011;7534;50.762;7.000;2024-02-21T07:16:05;6.83;;;3.80;;
14883;SDS011;7534;50.762;7.000;2024-02-21T07:18:31;6.87;;;3.73;;
14883;SDS011;7534;50.762;7.000;2024-02-21T07:20:57;9.47;;;4.40;;
14883;SDS011;7534;50.762;7.000;2024-02-21T07:23:23;7.70;;;4.00;;
14883;SDS011;7534;50.762;7.000;2024-02-21T07:25:49;9.20;;;4.10;;
14883;SDS011;7534;50.762;7.000;2024-02-21T07:28:15;8.57;;;3.97;;
14883;SDS011;7534;50.762;7.000;2024-02-21T07:30:42;6.93;;;4.33;;
14883;SDS011;7534;50.762;7.000;2024-02-21T07:33:08;8.50;;;3.67;;
14883;SDS011;7534;50.762;7.000;2024-02-21T07:35:34;7.50;;;3.90;;
14883;SDS011;7534;50.762;7.000;2024-02-21T07:38:02;7.90;;;3.97;;
14883;SDS011;7534;50.762;7.000;2024-02-21T07:40:31;7.37;;;3.73;;
14883;SDS011;7534;50.762;7.000;2024-02-21T07:42:56;8.17;;;3.97;;
14883;SDS011;7534;50.762;7.000;2024-02-21T07:45:22;6.63;;;3.73;;
14883;SDS011;7534;50.762;7.000;2024-02-21T07:47:49;6.37;;;3.50;;
14883;SDS011;7534;50.762;7.000;2024-02-21T07:50:15;8.70;;;4.53;;
14883;SDS011;7534;50.762;7.000;2024-02-21T07:52:41;7.47;;;4.40;;
14883;SDS011;7534;50.762;7.000;2024-02-21T07:55:08;10.63;;;4.17;;
14883;SDS011;7534;50.762;7.000;2024-02-21T07:57:35;8.37;;;4.23;;
14883;SDS011;7534;50.762;7.000;2024-02-21T08:00:01;7.37;;;4.30;;
14883;SDS011;7534;50.762;7.000;2024-02-21T08:02:29;9.87;;;5.03;;
14883;SDS011;7534;50.762;7.000;2024-02-21T08:04:54;7.53;;;4.60;;
14883;SDS011;7534;50.762;7.000;2024-02-21T08:07:20;10.67;;;5.30;;
14883;SDS011;7534;50.762;7.000;2024-02-21T08:09:46;8.27;;;5.00;;
14883;SDS011;7534;50.762;7.000;2024-02-21T08:12:11;9.32;;;5.13;;
14883;SDS011;7534;50.762;7.000;2024-02-21T08:14:37;9.68;;;4.85;;
14883;SDS011;7534;50.762;7.000;2024-02-21T08:17:03;10.43;;;4.20;;
14883;SDS011;7534;50.762;7.000;2024-02-21T08:19:29;9.90;;;4.77;;
14883;SDS011;7534;50.762;7.000;2024-02-21T08:21:55;8.30;;;4.67;;
14883;SDS011;7534;50.762;7.000;2024-02-21T08:24:20;8.70;;;4.27;;
14883;SDS011;7534;50.762;7.000;2024-02-21T08:26:47;7.70;;;4.27;;
14883;SDS011;7534;50.762;7.000;2024-02-21T08:29:13;7.37;;;3.97;;
14883;SDS011;7534;50.762;7.000;2024-02-21T08:31:39;8.17;;;4.00;;
14883;SDS011;7534;50.762;7.000;2024-02-21T08:34:04;6.80;;;4.00;;
14883;SDS011;7534;50.762;7.000;2024-02-21T08:36:30;8.70;;;4.57;;
14883;SDS011;7534;50.762;7.000;2024-02-21T08:38:57;8.10;;;3.53;;
14883;SDS011;7534;50.762;7.000;2024-02-21T08:41:23;10.40;;;4.67;;
14883;SDS011;7534;50.762;7.000;2024-02-21T08:43:53;7.73;;;3.90;;
14883;SDS011;7534;50.762;7.000;2024-02-21T08:46:20;8.60;;;4.33;;
14883;SDS011;7534;50.762;7.000;2024-02-21T08:48:46;7.93;;;4.23;;
14883;SDS011;7534;50.762;7.000;2024-02-21T08:51:14;12.83;;;4.50;;
14883;SDS011;7534;50.762;7.000;2024-02-21T08:53:40;6.70;;;3.57;;
14883;SDS011;7534;50.762;7.000;2024-02-21T08:56:06;8.07;;;3.70;;
14883;SDS011;7534;50.762;7.000;2024-02-21T08:58:32;8.65;;;4.75;;
14883;SDS011;7534;50.762;7.000;2024-02-21T09:00:59;8.15;;;4.10;;
14883;SDS011;7534;50.762;7.000;2024-02-21T09:03:25;7.40;;;3.90;;
14883;SDS011;7534;50.762;7.000;2024-02-21T09:05:51;11.70;;;3.77;;
14883;SDS011;7534;50.762;7.000;2024-02-21T09:08:16;6.67;;;3.60;;
14883;SDS011;7534;50.762;7.000;2024-02-21T09:10:43;6.57;;;3.23;;
14883;SDS011;7534;50.762;7.000;2024-02-21T09:13:09;7.17;;;3.13;;
14883;SDS011;7534;50.762;7.000;2024-02-21T09:15:34;8.00;;;3.43;;
14883;SDS011;7534;50.762;7.000;2024-02-21T09:18:00;8.10;;;3.60;;
14883;SDS011;7534;50.762;7.000;2024-02-21T09:20:26;5.13;;;2.92;;
14883;SDS011;7534;50.762;7.000;2024-02-21T09:22:51;5.70;;;3.17;;
14883;SDS011;7534;50.762;7.000;2024-02-21T09:25:18;7.65;;;3.25;;
14883;SDS011;7534;50.762;7.000;2024-02-21T09:27:44;6.65;;;3.65;;
14883;SDS011;7534;50.762;7.000;2024-02-21T09:30:12;7.40;;;3.58;;
14883;SDS011;7534;50.762;7.000;2024-02-21T09:32:38;6.10;;;2.90;;
14883;SDS011;7534;50.762;7.000;2024-02-21T09:35:04;6.67;;;3.30;;
14883;SDS011;7534;50.762;7.000;2024-02-21T09:37:32;7.87;;;3.03;;
14883;SDS011;7534;50.762;7.000;2024-02-21T09:39:59;5.67;;;3.40;;
14883;SDS011;7534;50.762;7.000;2024-02-21T09:42:32;5.90;;;3.37;;
14883;SDS011;7534;50.762;7.000;2024-02-21T09:45:07;5.50;;;3.07;;
14883;SDS011;7534;50.762;7.000;2024-02-21T09:47:43;6.27;;;3.47;;
14883;SDS011;7534;50.762;7.000;2024-02-21T09:51:01;6.85;;;3.70;;
14883;SDS011;7534;50.762;7.000;2024-02-21T09:53:28;7.50;;;3.07;;
14883;SDS011;7534;50.762;7.000;2024-02-21T09:55:57;6.97;;;3.08;;
14883;SDS011;7534;50.762;7.000;2024-02-21T09:58:24;8.68;;;3.17;;
14883;SDS011;7534;50.762;7.000;2024-02-21T10:00:52;6.77;;;3.40;;
14883;SDS011;7534;50.762;7.000;2024-02-21T10:03:18;7.00;;;3.37;;
14883;SDS011;7534;50.762;7.000;2024-02-21T10:05:47;5.38;;;3.20;;
14883;SDS011;7534;50.762;7.000;2024-02-21T10:08:15;6.10;;;3.47;;
14883;SDS011;7534;50.762;7.000;2024-02-21T10:10:44;6.30;;;3.50;;
14883;SDS011;7534;50.762;7.000;2024-02-21T10:13:10;6.00;;;3.00;;
14883;SDS011;7534;50.762;7.000;2024-02-21T10:15:49;8.15;;;3.60;;
14883;SDS011;7534;50.762;7.000;2024-02-21T10:18:28;6.97;;;3.63;;
14883;SDS011;7534;50.762;7.000;2024-02-21T10:21:03;9.45;;;4.03;;
14883;SDS011;7534;50.762;7.000;2024-02-21T10:23:48;6.65;;;3.10;;
14883;SDS011;7534;50.762;7.000;2024-02-21T10:26:15;6.10;;;3.33;;
14883;SDS011;7534;50.762;7.000;2024-02-21T10:28:43;4.93;;;3.03;;
14883;SDS011;7534;50.762;7.000;2024-02-21T10:31:23;6.50;;;2.90;;
14883;SDS011;7534;50.762;7.000;2024-02-21T10:33:56;6.32;;;2.78;;
14883;SDS011;7534;50.762;7.000;2024-02-21T10:36:30;5.50;;;3.20;;
14883;SDS011;7534;50.762;7.000;2024-02-21T10:38:56;7.07;;;3.20;;
14883;SDS011;7534;50.762;7.000;2024-02-21T10:41:22;7.32;;;3.20;;
14883;SDS011;7534;50.762;7.000;2024-02-21T10:43:53;7.70;;;3.00;;
14883;SDS011;7534;50.762;7.000;2024-02-21T10:46:20;6.47;;;2.93;;
14883;SDS011;7534;50.762;7.000;2024-02-21T10:48:48;7.28;;;3.22;;
14883;SDS011;7534;50.762;7.000;2024-02-21T10:51:27;5.90;;;3.20;;
14883;SDS011;7534;50.762;7.000;2024-02-21T10:54:05;6.07;;;3.28;;
14883;SDS011;7534;50.762;7.000;2024-02-21T10:56:53;5.70;;;3.08;;
14883;SDS011;7534;50.762;7.000;2024-02-21T10:59:22;5.82;;;3.03;;
14883;SDS011;7534;50.762;7.000;2024-02-21T11:01:48;5.95;;;3.00;;
14883;SDS011;7534;50.762;7.000;2024-02-21T11:04:14;5.25;;;3.00;;
14883;SDS011;7534;50.762;7.000;2024-02-21T11:06:41;7.15;;;3.42;;
14883;SDS011;7534;50.762;7.000;2024-02-21T11:09:11;5.15;;;2.83;;
14883;SDS011;7534;50.762;7.000;2024-02-21T11:11:40;5.82;;;2.63;;
14883;SDS011;7534;50.762;7.000;2024-02-21T11:14:17;6.95;;;3.30;;
14883;SDS011;7534;50.762;7.000;2024-02-21T11:16:44;6.43;;;2.88;;
14883;SDS011;7534;50.762;7.000;2024-02-21T11:19:21;4.22;;;3.05;;
14883;SDS011;7534;50.762;7.000;2024-02-21T11:21:48;5.15;;;2.78;;
14883;SDS011;7534;50.762;7.000;2024-02-21T11:29:48;5.97;;;3.13;;
14883;SDS011;7534;50.762;7.000;2024-02-21T11:32:20;4.43;;;2.70;;
14883;SDS011;7534;50.762;7.000;2024-02-21T11:34:59;4.20;;;2.70;;
14883;SDS011;7534;50.762;7.000;2024-02-21T11:37:27;4.20;;;2.80;;
14883;SDS011;7534;50.762;7.000;2024-02-21T11:39:55;4.80;;;2.53;;
14883;SDS011;7534;50.762;7.000;2024-02-21T11:42:21;5.68;;;3.70;;
14883;SDS011;7534;50.762;7.000;2024-02-21T11:44:47;5.27;;;2.80;;
14883;SDS011;7534;50.762;7.000;2024-02-21T11:47:14;7.53;;;3.25;;
14883;SDS011;7534;50.762;7.000;2024-02-21T11:49:46;4.43;;;3.20;;
14883;SDS011;7534;50.762;7.000;2024-02-21T11:52:15;5.37;;;3.33;;
14883;SDS011;7534;50.762;7.000;2024-02-21T11:54:43;5.93;;;3.03;;
14883;SDS011;7534;50.762;7.000;2024-02-21T11:57:10;5.03;;;3.22;;
14883;SDS011;7534;50.762;7.000;2024-02-21T11:59:39;6.53;;;3.23;;
14883;SDS011;7534;50.762;7.000;2024-02-21T12:02:05;5.60;;;3.53;;
14883;SDS011;7534;50.762;7.000;2024-02-21T12:04:33;6.37;;;3.03;;
14883;SDS011;7534;50.762;7.000;2024-02-21T12:06:59;3.97;;;2.80;;
14883;SDS011;7534;50.762;7.000;2024-02-21T12:09:25;5.07;;;3.00;;
14883;SDS011;7534;50.762;7.000;2024-02-21T12:12:02;7.53;;;3.60;;
14883;SDS011;7534;50.762;7.000;2024-02-21T12:14:30;6.70;;;2.97;;
14883;SDS011;7534;50.762;7.000;2024-02-21T12:16:58;7.33;;;2.93;;
14883;SDS011;7534;50.762;7.000;2024-02-21T12:19:25;4.30;;;3.00;;
14883;SDS011;7534;50.762;7.000;2024-02-21T12:21:51;6.53;;;3.37;;
14883;SDS011;7534;50.762;7.000;2024-02-21T12:24:26;6.00;;;3.17;;
14883;SDS011;7534;50.762;7.000;2024-02-21T12:26:54;5.60;;;3.07;;
14883;SDS011;7534;50.762;7.000;2024-02-21T12:29:22;5.73;;;3.20;;
14883;SDS011;7534;50.762;7.000;2024-02-21T12:31:49;5.03;;;2.90;;
14883;SDS011;7534;50.762;7.000;2024-02-21T12:34:16;5.77;;;3.20;;
14883;SDS011;7534;50.762;7.000;2024-02-21T12:36:42;6.03;;;2.90;;
14883;SDS011;7534;50.762;7.000;2024-02-21T12:39:09;5.20;;;2.87;;
14883;SDS011;7534;50.762;7.000;2024-02-21T12:41:36;5.53;;;3.30;;
14883;SDS011;7534;50.762;7.000;2024-02-21T12:44:06;6.03;;;2.80;;
14883;SDS011;7534;50.762;7.000;2024-02-21T12:46:35;6.50;;;3.30;;
14883;SDS011;7534;50.762;7.000;2024-02-21T12:49:04;5.10;;;3.13;;
14883;SDS011;7534;50.762;7.000;2024-02-21T12:51:30;4.60;;;2.63;;
14883;SDS011;7534;50.762;7.000;2024-02-21T12:53:56;7.17;;;2.93;;
14883;SDS011;7534;50.762;7.000;2024-02-21T12:56:22;5.03;;;3.13;;
14883;SDS011;7534;50.762;7.000;2024-02-21T12:58:49;8.10;;;3.27;;
14883;SDS011;7534;50.762;7.000;2024-02-21T13:01:15;7.00;;;3.10;;
14883;SDS011;7534;50.762;7.000;2024-02-21T13:03:41;6.50;;;2.73;;
14883;SDS011;7534;50.762;7.000;2024-02-21T13:06:07;9.67;;;3.10;;
14883;SDS011;7534;50.762;7.000;2024-02-21T13:08:35;6.20;;;3.30;;
14883;SDS011;7534;50.762;7.000;2024-02-21T13:11:02;6.13;;;3.10;;
14883;SDS011;7534;50.762;7.000;2024-02-21T13:13:29;7.23;;;3.17;;
14883;SDS011;7534;50.762;7.000;2024-02-21T13:15:55;6.77;;;3.00;;
14883;SDS011;7534;50.762;7.000;2024-02-21T13:18:20;6.83;;;3.00;;
14883;SDS011;7534;50.762;7.000;2024-02-21T13:20:47;5.10;;;2.90;;
14883;SDS011;7534;50.762;7.000;2024-02-21T13:23:13;5.23;;;3.13;;
14883;SDS011;7534;50.762;7.000;2024-02-21T13:25:38;5.27;;;3.23;;
14883;SDS011;7534;50.762;7.000;2024-02-21T13:28:04;6.30;;;3.20;;
14883;SDS011;7534;50.762;7.000;2024-02-21T13:30:30;5.30;;;2.70;;
14883;SDS011;7534;50.762;7.000;2024-02-21T13:32:56;6.27;;;3.73;;
14883;SDS011;7534;50.762;7.000;2024-02-21T13:35:21;6.33;;;3.07;;
14883;SDS011;7534;50.762;7.000;2024-02-21T13:37:47;6.30;;;2.50;;
14883;SDS011;7534;50.762;7.000;2024-02-21T13:40:13;4.83;;;2.70;;
14883;SDS011;7534;50.762;7.000;2024-02-21T13:42:39;5.87;;;3.10;;
14883;SDS011;7534;50.762;7.000;2024-02-21T13:45:05;4.07;;;2.77;;
14883;SDS011;7534;50.762;7.000;2024-02-21T13:47:35;6.70;;;2.87;;
14883;SDS011;7534;50.762;7.000;2024-02-21T13:50:04;3.80;;;2.60;;
14883;SDS011;7534;50.762;7.000;2024-02-21T13:52:39;5.60;;;2.77;;
14883;SDS011;7534;50.762;7.000;2024-02-21T13:55:05;4.97;;;2.50;;
14883;SDS011;7534;50.762;7.000;2024-02-21T13:57:37;3.37;;;2.30;;
14883;SDS011;7534;50.762;7.000;2024-02-21T14:00:03;5.63;;;2.90;;
14883;SDS011;7534;50.762;7.000;2024-02-21T14:02:30;6.50;;;2.90;;
14883;SDS011;7534;50.762;7.000;2024-02-21T14:04:56;4.80;;;2.63;;
14883;SDS011;7534;50.762;7.000;2024-02-21T14:07:22;6.03;;;2.80;;
14883;SDS011;7534;50.762;7.000;2024-02-21T14:09:48;5.90;;;3.00;;
14883;SDS011;7534;50.762;7.000;2024-02-21T14:12:14;4.27;;;2.50;;
14883;SDS011;7534;50.762;7.000;2024-02-21T14:14:43;5.37;;;2.90;;
14883;SDS011;7534;50.762;7.000;2024-02-21T14:17:09;5.57;;;2.80;;
14883;SDS011;7534;50.762;7.000;2024-02-21T14:19:35;4.83;;;2.63;;
14883;SDS011;7534;50.762;7.000;2024-02-21T14:22:00;6.57;;;2.67;;
14883;SDS011;7534;50.762;7.000;2024-02-21T14:24:27;4.27;;;2.40;;
14883;SDS011;7534;50.762;7.000;2024-02-21T14:26:53;6.27;;;2.93;;
14883;SDS011;7534;50.762;7.000;2024-02-21T14:29:20;4.63;;;2.47;;
14883;SDS011;7534;50.762;7.000;2024-02-21T14:31:46;7.03;;;2.90;;
14883;SDS011;7534;50.762;7.000;2024-02-21T14:34:13;5.90;;;2.73;;
14883;SDS011;7534;50.762;7.000;2024-02-21T14:36:39;5.00;;;2.73;;
14883;SDS011;7534;50.762;7.000;2024-02-21T14:39:05;5.80;;;2.50;;
14883;SDS011;7534;50.762;7.000;2024-02-21T14:41:31;6.20;;;2.60;;
14883;SDS011;7534;50.762;7.000;2024-02-21T14:43:57;5.13;;;2.57;;
14883;SDS011;7534;50.762;7.000;2024-02-21T14:46:25;3.80;;;2.60;;
14883;SDS011;7534;50.762;7.000;2024-02-21T14:48:57;5.60;;;2.60;;
14883;SDS011;7534;50.762;7.000;2024-02-21T14:51:22;4.93;;;2.70;;
14883;SDS011;7534;50.762;7.000;2024-02-21T14:53:48;5.13;;;2.60;;
14883;SDS011;7534;50.762;7.000;2024-02-21T14:56:14;5.30;;;2.50;;
14883;SDS011;7534;50.762;7.000;2024-02-21T14:58:41;4.10;;;2.40;;
14883;SDS011;7534;50.762;7.000;2024-02-21T15:01:07;4.70;;;2.80;;
14883;SDS011;7534;50.762;7.000;2024-02-21T15:03:33;4.60;;;2.57;;